Bookmark and Share
Track history (hours):
 

Intrepid

More information available from US FCC via Universal Licensing System and Coast Guard Vessel Documentation Center.

Last reported at 2014-Apr-13 19:10 UTC. Time now 2014-Apr-24 11:23 UTC.
Position N 27°15' W 080°13'.
Warning: this ship's position is 10 days out of date.

Length 35 m; draft 2 m.

Type: Pleasure craft. MMSI: 367409580.

NotesDate/timePositionNaut miles runAvg speedWind from/ knotsBaromVisibWave heightAir tempDewpointWater temp
2014-Apr-13 19:10N 27°15' W 080°13'5 8.5
2014-Apr-13 18:33N 27°10' W 080°11'9 8.8
2014-Apr-13 17:33N 27°03' W 080°07'7 6.7
2014-Apr-13 16:33N 26°56' W 080°05'10 4.9
2014-Apr-13 14:29N 26°46' W 080°02'1515.8
2014-Apr-13 13:33N 26°32' W 080°01'1515.4
2014-Apr-13 12:33N 26°16' W 080°03'1110.6
2014-Apr-13 11:33N 26°06' W 080°07'2 2.1
2014-Apr-13 10:33N 26°08' W 080°07'0 0.0
2014-Apr-13 09:32N 26°08' W 080°07'0 0.0
2014-Apr-13 08:32N 26°08' W 080°07'0 0.0
2014-Apr-13 07:23N 26°08' W 080°07'0 0.0
2014-Apr-13 06:26N 26°08' W 080°07'0 0.0
2014-Apr-13 05:26N 26°08' W 080°07'0 0.0
2014-Apr-13 04:26N 26°08' W 080°07'0 0.0
2014-Apr-13 03:29N 26°08' W 080°07'0 0.0
2014-Apr-13 02:26N 26°08' W 080°07'0 0.0
2014-Apr-13 01:29N 26°08' W 080°07'0 0.0
2014-Apr-13 00:32N 26°08' W 080°07'0 0.0
2014-Apr-12 23:32N 26°08' W 080°07'0 0.0
2014-Apr-12 22:32N 26°08' W 080°07'0 0.0
2014-Apr-12 21:32N 26°08' W 080°07'0 0.0
2014-Apr-12 20:20N 26°08' W 080°07'0 0.0
2014-Apr-12 19:32N 26°08' W 080°07'0 0.0
2014-Apr-12 18:32N 26°08' W 080°07'0 0.0
2014-Apr-12 17:23N 26°08' W 080°07'0 0.0
2014-Apr-12 16:26N 26°08' W 080°07'0 0.0
2014-Apr-12 15:26N 26°08' W 080°07'0 0.0
2014-Apr-12 14:26N 26°08' W 080°07'0 0.0
2014-Apr-12 13:29N 26°08' W 080°07'0 0.0
2014-Apr-12 12:29N 26°08' W 080°07'0 0.0
2014-Apr-12 11:29N 26°08' W 080°07'0 0.0
2014-Apr-12 10:32N 26°08' W 080°07'0 0.0
2014-Apr-12 09:32N 26°08' W 080°07'0 0.0
2014-Apr-12 08:32N 26°08' W 080°07'0 0.0
2014-Apr-12 07:20N 26°08' W 080°07'0 0.0
2014-Apr-12 06:32N 26°08' W 080°07'0 0.0
2014-Apr-12 05:32N 26°08' W 080°07'0 0.0
2014-Apr-12 04:32N 26°08' W 080°07'0 0.0
2014-Apr-12 03:23N 26°08' W 080°07'0 0.0
2014-Apr-12 02:26N 26°08' W 080°07'0 0.0
2014-Apr-12 01:26N 26°08' W 080°07'0 0.0
2014-Apr-12 00:26N 26°08' W 080°07'0 0.0
2014-Apr-11 23:29N 26°08' W 080°07'0 0.0
2014-Apr-11 22:29N 26°08' W 080°07'0 0.0
2014-Apr-11 21:29N 26°08' W 080°07'0 0.0
2014-Apr-11 20:32N 26°08' W 080°07'0 0.0
2014-Apr-11 19:32N 26°08' W 080°07'0 0.0
2014-Apr-11 18:32N 26°08' W 080°07'0 0.0
2014-Apr-11 17:32N 26°08' W 080°07'0 0.0
2014-Apr-11 16:32N 26°08' W 080°07'0 0.0
2014-Apr-11 15:32N 26°08' W 080°07'0 0.0
2014-Apr-11 14:32N 26°08' W 080°07'0 0.0
2014-Apr-11 13:23N 26°08' W 080°07'0 0.0
2014-Apr-11 12:23N 26°08' W 080°07'0 0.0
2014-Apr-11 11:26N 26°08' W 080°07'0 0.0
2014-Apr-11 10:26N 26°08' W 080°07'0 0.0
2014-Apr-11 09:29N 26°08' W 080°07'0 0.0
2014-Apr-11 08:29N 26°08' W 080°07'0 0.0
2014-Apr-11 07:29N 26°08' W 080°07'0 0.0
2014-Apr-11 06:32N 26°08' W 080°07'0 0.0
2014-Apr-11 05:32N 26°08' W 080°07'0 0.0
2014-Apr-11 04:32N 26°08' W 080°07'0 0.0
2014-Apr-11 03:32N 26°08' W 080°07'0 0.0
2014-Apr-11 02:32N 26°08' W 080°07'0 0.0
2014-Apr-11 01:32N 26°08' W 080°07'0 0.0
2014-Apr-11 00:32N 26°08' W 080°07'0 0.0
2014-Apr-10 23:23N 26°08' W 080°07'0 0.0
2014-Apr-10 22:23N 26°08' W 080°07'0 0.0
2014-Apr-10 21:26N 26°08' W 080°07'0 0.0
2014-Apr-10 20:26N 26°08' W 080°07'0 0.0
2014-Apr-10 19:26N 26°08' W 080°07'0 0.0
2014-Apr-10 18:29N 26°08' W 080°07'0 0.0
2014-Apr-10 17:29N 26°08' W 080°07'0 0.0
2014-Apr-10 16:29N 26°08' W 080°07'0 0.0
2014-Apr-10 15:32N 26°08' W 080°07'0 0.0
2014-Apr-10 14:32N 26°08' W 080°07'0 0.0
2014-Apr-10 13:32N 26°08' W 080°07'0 0.0
2014-Apr-10 12:32N 26°08' W 080°07'0 0.0
2014-Apr-10 11:32N 26°08' W 080°07'0 0.0
2014-Apr-10 10:32N 26°08' W 080°07'0 0.0
2014-Apr-10 09:32N 26°08' W 080°07'0 0.0
2014-Apr-10 08:23N 26°08' W 080°07'0 0.0
2014-Apr-10 07:26N 26°08' W 080°07'0 0.0
2014-Apr-10 06:26N 26°08' W 080°07'0 0.0
2014-Apr-10 05:26N 26°08' W 080°07'0 0.0
2014-Apr-10 04:29N 26°08' W 080°07'0 0.0
2014-Apr-10 03:29N 26°08' W 080°07'0 0.0
2014-Apr-10 02:29N 26°08' W 080°07'0 0.0
2014-Apr-10 01:32N 26°08' W 080°07'0 0.0
2014-Apr-10 00:32N 26°08' W 080°07'0 0.0
2014-Apr-09 23:32N 26°08' W 080°07'0 0.0
2014-Apr-09 22:32N 26°08' W 080°07'0 0.0
2014-Apr-09 21:32N 26°08' W 080°07'0 0.0
2014-Apr-09 20:32N 26°08' W 080°07'0 0.0
2014-Apr-09 19:32N 26°08' W 080°07'0 0.0
2014-Apr-09 18:23N 26°08' W 080°07'0 0.0
2014-Apr-09 17:26N 26°08' W 080°07'0 0.0
2014-Apr-09 16:26N 26°08' W 080°07'0 0.0
2014-Apr-09 15:26N 26°08' W 080°07'0 0.0
2014-Apr-09 14:29N 26°08' W 080°07'0 0.0
2014-Apr-09 13:29N 26°08' W 080°07'0 0.0
2014-Apr-09 12:29N 26°08' W 080°07'0 0.0
2014-Apr-09 11:32N 26°08' W 080°07'0 0.0
2014-Apr-09 10:32N 26°08' W 080°07'0 0.0
2014-Apr-09 09:32N 26°08' W 080°07'0 0.0
2014-Apr-09 08:32N 26°08' W 080°07'0 0.0
2014-Apr-09 07:32N 26°08' W 080°07'0 0.0
2014-Apr-09 06:32N 26°08' W 080°07'0 0.0
2014-Apr-09 05:32N 26°08' W 080°07'0 0.0
2014-Apr-09 04:23N 26°08' W 080°07'0 0.0
2014-Apr-09 03:26N 26°08' W 080°07'0 0.0
2014-Apr-09 02:26N 26°08' W 080°07'0 0.0
2014-Apr-09 01:26N 26°08' W 080°07'0 0.0
2014-Apr-09 00:29N 26°08' W 080°07'0 0.0
2014-Apr-08 23:29N 26°08' W 080°07'0 0.0
2014-Apr-08 22:29N 26°08' W 080°07'0 0.0
2014-Apr-08 21:32N 26°08' W 080°07'0 0.0
2014-Apr-08 20:32N 26°08' W 080°07'0 0.0
2014-Apr-08 19:32N 26°08' W 080°07'0 0.0
2014-Apr-08 18:32N 26°08' W 080°07'0 0.0
2014-Apr-08 17:32N 26°08' W 080°07'0 0.0
2014-Apr-08 16:32N 26°08' W 080°07'0 0.0
2014-Apr-08 15:32N 26°08' W 080°07'0 0.0
2014-Apr-08 14:23N 26°08' W 080°07'0 0.0
2014-Apr-08 13:26N 26°08' W 080°07'0 0.0
2014-Apr-08 12:26N 26°08' W 080°07'0 0.0
2014-Apr-08 11:26N 26°08' W 080°07'0 0.0
2014-Apr-08 10:29N 26°08' W 080°07'0 0.0
2014-Apr-08 09:26N 26°08' W 080°07'0 0.0
2014-Apr-08 08:29N 26°08' W 080°07'0 0.0
2014-Apr-08 07:32N 26°08' W 080°07'0 0.0
2014-Apr-08 06:32N 26°08' W 080°07'0 0.0
2014-Apr-08 05:32N 26°08' W 080°07'0 0.0
2014-Apr-08 04:32N 26°08' W 080°07'0 0.0
2014-Apr-08 03:32N 26°08' W 080°07'0 0.0
2014-Apr-08 02:32N 26°08' W 080°07'0 0.0
2014-Apr-08 01:32N 26°08' W 080°07'0 0.0
2014-Apr-08 00:23N 26°08' W 080°07'0 0.0
2014-Apr-07 23:23N 26°08' W 080°07'0 0.0
2014-Apr-07 22:26N 26°08' W 080°07'0 0.0
2014-Apr-07 21:26N 26°08' W 080°07'0 0.0
2014-Apr-07 20:29N 26°08' W 080°07'0 0.0
2014-Apr-07 19:29N 26°08' W 080°07'0 0.0
2014-Apr-07 17:32N 26°08' W 080°07'0 0.0
2014-Apr-07 16:32N 26°08' W 080°07'0 0.0
2014-Apr-07 15:32N 26°08' W 080°07'0 0.0
2014-Apr-07 14:32N 26°08' W 080°07'0 0.0
2014-Apr-07 13:32N 26°08' W 080°07'0 0.0
2014-Apr-07 12:32N 26°08' W 080°07'0 0.0
2014-Apr-07 11:32N 26°08' W 080°07'0 0.0
2014-Apr-07 10:23N 26°08' W 080°07'0 0.0
2014-Apr-07 09:23N 26°08' W 080°07'0 0.0
2014-Apr-07 08:23N 26°08' W 080°07'0 0.0
2014-Apr-07 07:26N 26°08' W 080°07'0 0.0
2014-Apr-07 06:26N 26°08' W 080°07'0 0.0
2014-Apr-07 05:29N 26°08' W 080°07'0 0.0
2014-Apr-07 04:29N 26°08' W 080°07'0 0.0
2014-Apr-07 03:29N 26°08' W 080°07'0 0.0
2014-Apr-07 02:32N 26°08' W 080°07'0 0.0
2014-Apr-07 01:32N 26°08' W 080°07'0 0.0
2014-Apr-07 00:32N 26°08' W 080°07'0 0.0
2014-Apr-06 23:32N 26°08' W 080°07'0 0.0
2014-Apr-06 22:32N 26°08' W 080°07'0 0.0
2014-Apr-06 21:32N 26°08' W 080°07'0 0.0
2014-Apr-06 20:32N 26°08' W 080°07'0 0.0
2014-Apr-06 19:23N 26°08' W 080°07'0 0.0
2014-Apr-06 18:26N 26°08' W 080°07'0 0.0
2014-Apr-06 17:26N 26°08' W 080°07'0 0.0
2014-Apr-06 16:26N 26°08' W 080°07'0 0.0
2014-Apr-06 15:29N 26°08' W 080°07'0 0.0
2014-Apr-06 14:29N 26°08' W 080°07'0 0.0
2014-Apr-06 13:29N 26°08' W 080°07'0 0.0
2014-Apr-06 12:32N 26°08' W 080°07'0 0.0
2014-Apr-06 11:32N 26°08' W 080°07'0 0.0
2014-Apr-06 10:32N 26°08' W 080°07'0 0.0
2014-Apr-06 09:32N 26°08' W 080°07'0 0.0
2014-Apr-06 08:32N 26°08' W 080°07'0 0.0
2014-Apr-06 07:31N 26°08' W 080°07'0 0.0
2014-Apr-06 06:32N 26°08' W 080°07'0 0.0
2014-Apr-06 05:23N 26°08' W 080°07'0 0.0
2014-Apr-06 04:25N 26°08' W 080°07'0 0.0
2014-Apr-06 03:26N 26°08' W 080°07'0 0.0
2014-Apr-06 02:25N 26°08' W 080°07'0 0.0
2014-Apr-06 01:28N 26°08' W 080°07'0 0.0
2014-Apr-06 00:28N 26°08' W 080°07'0 0.0
2014-Apr-05 23:28N 26°08' W 080°07'0 0.0
2014-Apr-05 22:31N 26°08' W 080°07'0 0.0
2014-Apr-05 21:31N 26°08' W 080°07'0 0.0
2014-Apr-05 20:31N 26°08' W 080°07'0 0.0
2014-Apr-05 19:31N 26°08' W 080°07'0 0.0
2014-Apr-05 18:31N 26°08' W 080°07'0 0.0
2014-Apr-05 17:31N 26°08' W 080°07'0 0.0
2014-Apr-05 16:31N 26°08' W 080°07'0 0.0
2014-Apr-05 15:22N 26°08' W 080°07'0 0.0
2014-Apr-05 14:25N 26°08' W 080°07'0 0.0
2014-Apr-05 13:25N 26°08' W 080°07'0 0.0
2014-Apr-05 12:25N 26°08' W 080°07'0 0.0
2014-Apr-05 11:28N 26°08' W 080°07'0 0.0
2014-Apr-05 10:28N 26°08' W 080°07'0 0.0
2014-Apr-05 09:28N 26°08' W 080°07'0 0.0
2014-Apr-05 08:31N 26°08' W 080°07'0 0.0
2014-Apr-05 07:31N 26°08' W 080°07'0 0.0
2014-Apr-05 06:31N 26°08' W 080°07'0 0.0
2014-Apr-05 05:31N 26°08' W 080°07'0 0.0
2014-Apr-05 04:31N 26°08' W 080°07'0 0.0
2014-Apr-05 03:31N 26°08' W 080°07'0 0.0
2014-Apr-05 02:31N 26°08' W 080°07'0 0.0
2014-Apr-05 01:22N 26°08' W 080°07'0 0.0
2014-Apr-05 00:25N 26°08' W 080°07'0 0.0
2014-Apr-04 23:25N 26°08' W 080°07'0 0.0
2014-Apr-04 22:25N 26°08' W 080°07'0 0.0
2014-Apr-04 21:28N 26°08' W 080°07'0 0.0
2014-Apr-04 20:28N 26°08' W 080°07'0 0.0
2014-Apr-04 19:28N 26°08' W 080°07'0 0.0
2014-Apr-04 18:31N 26°08' W 080°07'0 0.0
2014-Apr-04 17:31N 26°08' W 080°07'0 0.0
2014-Apr-04 16:31N 26°08' W 080°07'0 0.0
2014-Apr-04 15:28N 26°08' W 080°07'0 0.0
2014-Apr-04 14:31N 26°08' W 080°07'0 0.0
2014-Apr-04 13:31N 26°08' W 080°07'0 0.0
2014-Apr-04 12:31N 26°08' W 080°07'0 0.0
2014-Apr-04 11:22N 26°08' W 080°07'0 0.0
2014-Apr-04 10:22N 26°08' W 080°07'0 0.0
2014-Apr-04 09:25N 26°08' W 080°07'0 0.0
2014-Apr-04 08:25N 26°08' W 080°07'0 0.0
2014-Apr-04 07:25N 26°08' W 080°07'0 0.0
2014-Apr-04 06:28N 26°08' W 080°07'0 0.0
2014-Apr-04 05:28N 26°08' W 080°07'0 0.0
2014-Apr-04 04:31N 26°08' W 080°07'0 0.0
2014-Apr-04 03:31N 26°08' W 080°07'0 0.0
2014-Apr-04 02:31N 26°08' W 080°07'0 0.0
2014-Apr-04 01:31N 26°08' W 080°07'0 0.0
2014-Apr-04 00:31N 26°08' W 080°07'0 0.0
2014-Apr-03 23:31N 26°08' W 080°07'0 0.0
2014-Apr-03 22:31N 26°08' W 080°07'0 0.0
2014-Apr-03 21:22N 26°08' W 080°07'0 0.0
2014-Apr-03 20:22N 26°08' W 080°07'0 0.0
2014-Apr-03 19:25N 26°08' W 080°07'  

Dump ship's entire track history

sailing weather and tide predictions

Intrepid — WDE8786 — position and weather